Time;durP1;ratioP1;P1;durP2;ratioP2;P2;SDS_P1;SDS_P2;PMS_P1;PMS_P2;Temp;Humidity;BMP_temperature;BMP_pressure;BME280_temperature;BME280_humidity;BME280_pressure;Samples;Min_cycle;Max_cycle;Signal;HPM_P1;HPM_P2
2022/01/27 00:04:37;;;;;;;16.97;9.30;;;2.70;65.20;;;;;;5028378;28;20060;-82
2022/01/27 00:07:03;;;;;;;17.57;9.40;;;2.70;65.50;;;;;;5031092;28;20072;-82
2022/01/27 00:09:47;;;;;;;14.77;9.87;;;2.60;65.80;;;;;;4999914;28;20034;-82
2022/01/27 00:12:17;;;;;;;12.93;8.57;;;2.70;65.90;;;;;;5024895;28;20446;-82
2022/01/27 00:14:46;;;;;;;17.00;10.53;;;2.70;65.80;;;;;;5030501;28;20487;-82
2022/01/27 00:17:15;;;;;;;17.93;11.43;;;2.80;65.90;;;;;;5023530;28;20025;-82
2022/01/27 00:19:42;;;;;;;13.70;8.80;;;2.70;65.70;;;;;;5028088;28;20545;-82
2022/01/27 00:22:07;;;;;;;16.17;8.80;;;2.70;65.60;;;;;;5027458;28;20022;-82
2022/01/27 00:24:33;;;;;;;12.77;7.67;;;2.70;65.80;;;;;;5034221;28;20044;-82
2022/01/27 00:26:59;;;;;;;11.40;6.00;;;2.70;65.80;;;;;;5030917;28;20037;-82
2022/01/27 00:29:25;;;;;;;12.87;7.30;;;2.70;65.80;;;;;;5030156;28;20033;-82
2022/01/27 00:31:51;;;;;;;16.90;8.97;;;2.70;65.70;;;;;;5031430;28;20026;-82
2022/01/27 00:34:17;;;;;;;17.57;10.50;;;2.70;65.80;;;;;;5024177;28;20083;-82
2022/01/27 00:36:43;;;;;;;18.83;11.33;;;2.70;65.80;;;;;;5030806;28;20025;-82
2022/01/27 00:39:08;;;;;;;24.57;12.90;;;2.70;65.90;;;;;;5027829;28;20087;-82
2022/01/27 00:41:34;;;;;;;18.43;13.03;;;2.70;65.90;;;;;;5029253;28;20033;-82
2022/01/27 00:44:01;;;;;;;23.03;12.47;;;2.70;65.90;;;;;;5027422;28;20136;-82
2022/01/27 00:46:29;;;;;;;24.60;12.53;;;2.60;65.80;;;;;;5030562;28;20060;-82
2022/01/27 00:48:55;;;;;;;22.33;11.80;;;2.60;65.90;;;;;;5027280;28;20029;-82
2022/01/27 00:51:24;;;;;;;21.23;9.03;;;2.60;65.80;;;;;;5011258;28;20033;-82
2022/01/27 00:54:04;;;;;;;13.27;8.67;;;2.60;66.00;;;;;;5011543;28;20418;-83
2022/01/27 00:56:56;;;;;;;16.67;9.00;;;2.60;66.00;;;;;;5029505;28;20036;-82
2022/01/27 01:02:04;;;;;;;18.67;8.00;;;2.50;65.80;;;;;;5027680;28;20025;-82
2022/01/27 01:04:34;;;;;;;16.23;7.77;;;2.50;65.90;;;;;;5030754;28;20381;-82
2022/01/27 01:07:00;;;;;;;12.87;7.60;;;2.50;66.00;;;;;;5029819;28;20021;-82
2022/01/27 01:14:52;;;;;;;12.83;8.30;;;2.40;66.00;;;;;;5021199;28;20036;-82
2022/01/27 01:31:09;;;;;;;10.83;6.00;;;2.30;65.50;;;;;;5048454;28;20029;-82
2022/01/27 01:33:38;;;;;;;12.17;6.17;;;2.30;65.60;;;;;;5027458;28;20029;-82
2022/01/27 01:36:13;;;;;;;11.57;6.37;;;2.30;65.80;;;;;;5034466;28;20034;-82
2022/01/27 01:38:39;;;;;;;9.87;5.73;;;2.20;65.80;;;;;;5026480;28;20048;-82
2022/01/27 01:41:05;;;;;;;11.17;6.63;;;2.30;65.60;;;;;;5035023;28;20034;-82
2022/01/27 01:43:31;;;;;;;10.30;5.87;;;2.30;65.60;;;;;;5030582;28;20116;-82
2022/01/27 01:45:57;;;;;;;13.30;6.93;;;2.20;65.50;;;;;;5032687;28;20076;-82
2022/01/27 01:48:23;;;;;;;12.27;6.00;;;2.20;65.40;;;;;;5023261;28;20026;-82
2022/01/27 01:50:49;;;;;;;13.47;7.07;;;2.20;65.60;;;;;;5032881;28;20029;-82
2022/01/27 01:53:16;;;;;;;12.50;8.10;;;2.10;65.50;;;;;;5033483;28;20029;-82
2022/01/27 01:55:42;;;;;;;11.93;6.90;;;2.10;65.50;;;;;;5033398;28;20175;-82
2022/01/27 01:58:08;;;;;;;11.83;7.27;;;2.10;65.60;;;;;;5033207;28;20112;-82
2022/01/27 02:00:35;;;;;;;11.77;6.57;;;2.10;65.60;;;;;;5033435;28;20033;-82
2022/01/27 02:03:01;;;;;;;11.87;6.03;;;2.00;65.60;;;;;;5029959;28;20026;-82
2022/01/27 02:05:32;;;;;;;18.17;7.27;;;2.00;65.60;;;;;;5028731;28;20037;-82
2022/01/27 02:19:24;;;;;;;14.97;9.47;;;1.90;65.50;;;;;;5028677;28;20789;-82
2022/01/27 02:21:53;;;;;;;12.20;7.53;;;1.80;65.60;;;;;;5029538;28;20116;-82
2022/01/27 02:24:20;;;;;;;14.83;7.33;;;1.80;65.70;;;;;;5031436;28;20027;-82
2022/01/27 02:26:49;;;;;;;15.43;6.97;;;1.80;65.90;;;;;;5033305;28;20022;-82
2022/01/27 02:29:16;;;;;;;11.33;5.90;;;1.80;65.80;;;;;;5030984;28;20025;-82
2022/01/27 02:31:42;;;;;;;12.73;6.60;;;1.80;65.60;;;;;;5032174;28;20017;-81
2022/01/27 02:34:08;;;;;;;11.57;6.30;;;1.80;65.70;;;;;;5032560;28;20060;-82
2022/01/27 02:36:34;;;;;;;12.33;6.20;;;1.80;65.60;;;;;;5033085;28;20064;-82
2022/01/27 02:39:03;;;;;;;16.93;8.83;;;1.80;65.50;;;;;;5028812;28;20441;-82
2022/01/27 02:41:35;;;;;;;11.57;6.60;;;1.70;65.50;;;;;;5031006;28;20053;-81
2022/01/27 02:44:00;;;;;;;17.05;8.10;;;1.70;65.70;;;;;;5032317;28;20030;-82
2022/01/27 02:46:35;;;;;;;16.10;7.20;;;1.70;65.70;;;;;;5030422;28;20052;-81
2022/01/27 02:49:01;;;;;;;13.10;6.97;;;1.60;65.50;;;;;;5029948;28;20219;-82
2022/01/27 02:51:27;;;;;;;11.37;5.93;;;1.60;65.50;;;;;;5024336;28;20037;-82
2022/01/27 02:53:55;;;;;;;14.70;6.03;;;1.60;65.40;;;;;;5029078;28;20033;-82
2022/01/27 02:56:21;;;;;;;10.30;5.60;;;1.60;65.20;;;;;;5033373;28;20388;-82
2022/01/27 02:58:46;;;;;;;12.40;5.17;;;1.50;65.30;;;;;;5028067;28;20030;-82
2022/01/27 03:01:18;;;;;;;13.50;6.87;;;1.50;65.30;;;;;;5036237;28;20100;-82
2022/01/27 03:03:44;;;;;;;21.13;7.83;;;1.50;65.30;;;;;;5033272;28;20034;-82
2022/01/27 03:06:11;;;;;;;14.30;7.37;;;1.40;65.30;;;;;;5036670;28;20021;-82
2022/01/27 03:08:36;;;;;;;15.80;6.33;;;1.40;65.50;;;;;;5035643;28;20034;-82
2022/01/27 03:11:06;;;;;;;12.50;6.43;;;1.50;65.50;;;;;;5033549;28;20035;-82
2022/01/27 03:13:32;;;;;;;13.00;7.47;;;1.40;65.30;;;;;;5032016;28;20687;-82
2022/01/27 03:15:58;;;;;;;14.03;7.10;;;1.40;64.90;;;;;;5037220;28;20156;-82
2022/01/27 03:18:23;;;;;;;12.10;6.33;;;1.20;65.40;;;;;;5027709;28;20537;-82
2022/01/27 03:20:49;;;;;;;13.37;6.90;;;1.20;65.50;;;;;;5032898;28;20030;-82
2022/01/27 03:23:15;;;;;;;16.67;7.20;;;1.20;65.60;;;;;;5029961;28;20101;-82
2022/01/27 03:25:41;;;;;;;12.90;7.50;;;1.20;65.60;;;;;;5033388;28;20037;-82
2022/01/27 03:28:09;;;;;;;13.57;7.70;;;1.20;65.80;;;;;;5032988;28;20049;-82
2022/01/27 03:30:35;;;;;;;10.10;5.83;;;1.20;65.90;;;;;;5031123;28;20047;-82
2022/01/27 03:33:00;;;;;;;9.17;4.80;;;1.20;66.00;;;;;;5030880;28;20116;-82
2022/01/27 03:35:26;;;;;;;10.43;5.40;;;1.20;65.80;;;;;;5029117;28;20530;-82
2022/01/27 03:37:52;;;;;;;9.03;4.70;;;1.20;65.80;;;;;;5024760;28;20049;-82
2022/01/27 03:40:18;;;;;;;9.83;4.93;;;1.20;65.70;;;;;;5031333;28;20037;-82
2022/01/27 03:42:50;;;;;;;266.37;17.73;;;1.20;65.70;;;;;;5032343;28;20033;-82
2022/01/27 03:45:16;;;;;;;10.68;5.15;;;1.20;65.70;;;;;;5033013;28;20071;-82
2022/01/27 03:47:42;;;;;;;8.13;4.50;;;1.10;65.70;;;;;;5029275;28;20062;-82
2022/01/27 03:50:08;;;;;;;8.67;4.20;;;1.00;65.90;;;;;;5024014;28;20033;-82
2022/01/27 03:52:34;;;;;;;9.07;5.10;;;1.10;65.90;;;;;;5031738;28;20175;-82
2022/01/27 03:54:59;;;;;;;10.63;5.27;;;1.00;65.80;;;;;;5023323;28;20112;-82
2022/01/27 03:57:25;;;;;;;10.23;5.60;;;1.00;65.80;;;;;;5029968;28;20036;-81
2022/01/27 03:59:51;;;;;;;7.77;4.77;;;1.10;65.90;;;;;;5029785;28;20033;-82
2022/01/27 04:02:17;;;;;;;9.07;5.37;;;1.10;65.70;;;;;;5026189;28;20025;-82
2022/01/27 04:04:42;;;;;;;9.40;5.10;;;1.10;65.90;;;;;;5031298;28;20025;-82
2022/01/27 04:07:08;;;;;;;11.53;5.27;;;1.10;65.50;;;;;;5030766;28;20025;-81
2022/01/27 04:09:34;;;;;;;11.27;5.57;;;1.00;65.80;;;;;;5031182;28;20068;-82
2022/01/27 04:12:00;;;;;;;9.13;5.07;;;1.00;65.80;;;;;;5030654;28;20021;-82
2022/01/27 04:14:26;;;;;;;8.40;4.90;;;1.00;65.90;;;;;;5030430;28;20032;-82
2022/01/27 04:16:51;;;;;;;8.00;4.73;;;1.00;65.90;;;;;;5032839;28;20631;-82
2022/01/27 04:19:17;;;;;;;12.80;5.40;;;1.00;65.80;;;;;;5020005;28;20392;-82
2022/01/27 04:21:43;;;;;;;13.00;5.50;;;1.00;65.80;;;;;;5016139;28;20026;-82
2022/01/27 04:24:10;;;;;;;12.83;6.50;;;1.00;65.70;;;;;;5029869;28;20105;-82
2022/01/27 04:26:44;;;;;;;10.63;5.67;;;1.00;65.50;;;;;;5031802;28;20025;-82
2022/01/27 04:29:10;;;;;;;18.47;5.73;;;1.00;65.70;;;;;;5030910;28;20285;-82
2022/01/27 04:31:39;;;;;;;17.43;6.23;;;0.90;65.70;;;;;;5029128;28;20029;-82
2022/01/27 04:34:05;;;;;;;15.50;6.47;;;1.00;65.90;;;;;;5031177;28;20087;-82
2022/01/27 04:36:32;;;;;;;13.67;4.97;;;1.10;65.70;;;;;;5031064;28;20770;-82
2022/01/27 04:42:04;;;;;;;9.43;4.23;;;1.00;65.30;;;;;;5024536;28;20088;-82
2022/01/27 04:44:39;;;;;;;10.97;5.33;;;0.90;65.50;;;;;;5030770;28;20631;-82
2022/01/27 04:47:14;;;;;;;10.30;4.87;;;0.90;65.50;;;;;;5033912;28;20771;-82
2022/01/27 04:49:40;;;;;;;10.20;4.27;;;0.90;65.40;;;;;;5030456;28;20083;-82
2022/01/27 04:52:07;;;;;;;6.60;4.17;;;0.90;66.20;;;;;;5026415;28;20030;-82
2022/01/27 04:57:29;;;;;;;9.57;4.40;;;0.90;65.50;;;;;;5028204;28;20044;-82
2022/01/27 04:59:55;;;;;;;9.77;4.63;;;1.00;65.40;;;;;;5034783;28;20299;-82
2022/01/27 05:02:33;;;;;;;7.10;3.47;;;0.90;65.40;;;;;;5028162;28;20480;-82
2022/01/27 05:04:59;;;;;;;8.63;4.40;;;1.00;65.40;;;;;;5042743;28;20022;-82
2022/01/27 05:07:24;;;;;;;6.73;3.67;;;0.90;65.10;;;;;;5033886;28;20040;-82
2022/01/27 05:09:58;;;;;;;8.23;4.50;;;0.90;65.50;;;;;;5048395;28;20032;-82
2022/01/27 05:12:40;;;;;;;7.83;4.40;;;0.90;65.50;;;;;;5032700;28;20065;-82
2022/01/27 05:15:06;;;;;;;15.83;8.63;;;0.90;65.30;;;;;;5029193;28;20228;-82
2022/01/27 05:17:32;;;;;;;13.97;9.37;;;0.80;65.20;;;;;;5028538;28;20359;-82
2022/01/27 05:19:58;;;;;;;16.63;9.30;;;0.70;65.00;;;;;;5029028;28;20113;-82
2022/01/27 05:22:24;;;;;;;17.77;10.13;;;0.60;65.60;;;;;;5030250;28;20061;-81
2022/01/27 05:24:50;;;;;;;23.20;10.87;;;0.60;65.60;;;;;;5028723;28;20029;-82
2022/01/27 05:27:16;;;;;;;21.67;12.53;;;0.50;65.70;;;;;;5032142;28;20475;-82
2022/01/27 05:29:42;;;;;;;19.63;10.47;;;0.50;65.80;;;;;;5032757;28;20030;-82
2022/01/27 05:32:08;;;;;;;18.93;11.30;;;0.50;65.90;;;;;;5027717;28;20055;-82
2022/01/27 05:34:33;;;;;;;21.77;10.93;;;0.40;66.00;;;;;;5032598;28;20037;-82
2022/01/27 05:36:59;;;;;;;19.07;12.87;;;0.50;66.30;;;;;;5035356;28;20472;-82
2022/01/27 05:39:25;;;;;;;20.90;12.17;;;0.40;66.40;;;;;;5031210;28;20021;-82
2022/01/27 05:41:50;;;;;;;15.63;11.07;;;0.30;66.50;;;;;;5030511;28;20108;-82
2022/01/27 05:44:16;;;;;;;16.97;11.87;;;0.40;66.50;;;;;;5030261;28;20032;-81
2022/01/27 05:46:42;;;;;;;18.57;12.77;;;0.40;66.20;;;;;;5031990;28;20037;-82
2022/01/27 05:49:07;;;;;;;21.90;11.90;;;0.40;66.10;;;;;;5030153;28;20101;-82
2022/01/27 05:51:33;;;;;;;16.30;11.00;;;0.40;66.00;;;;;;5031149;28;20044;-81
2022/01/27 05:53:59;;;;;;;18.00;11.60;;;0.40;66.30;;;;;;5031890;28;20032;-81
2022/01/27 05:56:25;;;;;;;19.97;11.33;;;0.50;66.20;;;;;;5028168;28;20112;-81
2022/01/27 05:58:51;;;;;;;22.90;13.23;;;0.50;66.10;;;;;;5029894;28;20132;-81
2022/01/27 06:01:17;;;;;;;32.90;14.53;;;0.50;65.90;;;;;;5027668;28;20026;-81
2022/01/27 06:03:43;;;;;;;23.37;13.20;;;0.50;65.80;;;;;;5030388;28;20021;-82
2022/01/27 06:06:09;;;;;;;26.13;14.67;;;0.40;66.00;;;;;;5021566;28;20036;-82
2022/01/27 06:08:35;;;;;;;19.30;12.40;;;0.50;66.00;;;;;;5030585;28;20018;-82
2022/01/27 06:11:01;;;;;;;23.00;14.00;;;0.50;66.00;;;;;;5020813;28;20026;-81
2022/01/27 06:13:27;;;;;;;22.80;13.03;;;0.50;66.30;;;;;;5035720;28;20025;-82
2022/01/27 06:15:53;;;;;;;21.17;12.90;;;0.40;66.30;;;;;;5041617;28;20575;-82
2022/01/27 06:18:19;;;;;;;23.63;14.30;;;0.50;66.40;;;;;;5036240;28;21087;-82
2022/01/27 06:20:46;;;;;;;22.87;13.73;;;0.50;66.40;;;;;;5030793;28;20025;-81
2022/01/27 06:23:12;;;;;;;28.43;15.67;;;0.50;66.10;;;;;;5035106;28;20817;-82
2022/01/27 06:25:39;;;;;;;30.20;17.40;;;0.50;65.90;;;;;;5031638;28;20316;-82
2022/01/27 06:28:05;;;;;;;19.83;12.90;;;0.50;66.10;;;;;;5032761;28;20376;-82
2022/01/27 06:30:34;;;;;;;17.43;10.97;;;0.40;65.80;;;;;;5032899;28;20307;-82
2022/01/27 06:33:05;;;;;;;28.93;15.63;;;0.30;66.20;;;;;;5030150;28;20026;-82
2022/01/27 06:35:31;;;;;;;28.03;14.63;;;0.30;66.40;;;;;;5032615;28;20693;-82
2022/01/27 06:37:57;;;;;;;24.70;14.80;;;0.40;66.30;;;;;;5027224;28;20281;-82
2022/01/27 06:40:23;;;;;;;34.10;17.20;;;0.40;66.20;;;;;;5028318;28;20414;-82
2022/01/27 06:42:48;;;;;;;30.90;16.63;;;0.40;66.10;;;;;;5026804;28;20026;-82
2022/01/27 06:45:14;;;;;;;35.27;18.13;;;0.40;66.00;;;;;;5032605;28;20063;-82
2022/01/27 06:47:40;;;;;;;31.93;17.53;;;0.40;66.00;;;;;;5031313;28;20612;-82
2022/01/27 06:50:07;;;;;;;25.23;15.03;;;0.40;66.10;;;;;;5031309;28;20025;-82
2022/01/27 06:52:33;;;;;;;24.47;15.33;;;0.40;66.00;;;;;;5017892;28;20038;-82
2022/01/27 06:55:01;;;;;;;28.27;16.27;;;0.40;66.00;;;;;;5049066;28;20679;-82
2022/01/27 06:57:26;;;;;;;31.60;17.20;;;0.40;65.90;;;;;;5032216;28;20320;-82
2022/01/27 06:59:52;;;;;;;37.80;20.73;;;0.40;66.20;;;;;;5031671;28;20330;-82
2022/01/27 07:02:18;;;;;;;43.80;25.10;;;0.40;66.10;;;;;;5026572;28;20035;-82
2022/01/27 07:04:44;;;;;;;45.33;24.33;;;0.30;66.00;;;;;;5025238;28;20121;-82
2022/01/27 07:07:10;;;;;;;49.87;22.10;;;0.30;66.20;;;;;;5028878;28;20029;-82
2022/01/27 07:09:35;;;;;;;42.77;21.70;;;0.30;66.30;;;;;;5028832;28;20552;-82
2022/01/27 07:12:02;;;;;;;53.57;22.80;;;0.30;66.30;;;;;;5032411;28;20052;-82
2022/01/27 07:14:30;;;;;;;34.10;19.50;;;0.40;66.20;;;;;;5032314;28;20814;-82
2022/01/27 07:16:57;;;;;;;33.03;19.20;;;0.40;66.20;;;;;;5024522;28;20272;-81
2022/01/27 07:19:22;;;;;;;39.37;19.97;;;0.40;66.20;;;;;;5032132;28;20021;-81
2022/01/27 07:21:48;;;;;;;29.70;17.07;;;0.40;66.00;;;;;;5031770;28;20037;-82
2022/01/27 07:24:14;;;;;;;26.13;15.03;;;0.50;66.20;;;;;;5030043;28;20056;-81
2022/01/27 07:26:40;;;;;;;27.23;14.70;;;0.50;66.20;;;;;;5032128;28;20025;-81
2022/01/27 07:29:05;;;;;;;23.00;13.57;;;0.50;66.10;;;;;;5032437;28;20025;-81
2022/01/27 07:31:31;;;;;;;25.30;13.80;;;0.50;66.40;;;;;;5032083;28;20529;-81
2022/01/27 07:33:58;;;;;;;25.93;13.53;;;0.50;66.50;;;;;;5032234;28;20033;-82
2022/01/27 07:36:24;;;;;;;23.23;13.10;;;0.60;66.60;;;;;;5032044;28;20025;-81
2022/01/27 07:38:50;;;;;;;25.97;12.87;;;0.70;66.50;;;;;;5031643;28;20025;-82
2022/01/27 07:41:17;;;;;;;22.43;12.70;;;0.70;66.40;;;;;;5031640;28;20294;-82
2022/01/27 07:43:44;;;;;;;20.50;11.03;;;0.80;66.60;;;;;;5031964;28;20024;-82
2022/01/27 07:46:13;;;;;;;15.70;9.30;;;0.80;66.50;;;;;;5027512;28;20129;-82
2022/01/27 07:48:40;;;;;;;22.90;11.27;;;0.80;66.70;;;;;;5031837;28;20045;-82
2022/01/27 07:51:07;;;;;;;21.83;11.20;;;0.90;66.80;;;;;;5031531;28;20033;-82
2022/01/27 07:53:34;;;;;;;19.87;11.13;;;1.00;66.90;;;;;;5032990;28;20033;-82
2022/01/27 07:56:02;;;;;;;21.93;11.83;;;1.10;66.80;;;;;;5033116;28;20283;-82
2022/01/27 07:58:28;;;;;;;16.20;9.67;;;1.10;66.70;;;;;;5031478;28;20484;-82
2022/01/27 08:00:54;;;;;;;21.17;9.47;;;1.20;66.70;;;;;;5031259;28;20034;-82
2022/01/27 08:03:20;;;;;;;17.73;10.20;;;1.20;66.50;;;;;;5016629;28;20084;-82
2022/01/27 08:05:46;;;;;;;21.67;11.57;;;1.20;66.50;;;;;;5033081;28;20082;-82
2022/01/27 08:08:11;;;;;;;13.50;8.77;;;1.20;66.30;;;;;;5031224;28;20545;-82
2022/01/27 08:10:38;;;;;;;18.07;10.13;;;1.30;66.50;;;;;;5032124;28;20021;-82
2022/01/27 08:13:05;;;;;;;16.90;9.47;;;1.30;66.50;;;;;;5031282;28;20029;-82
2022/01/27 08:15:32;;;;;;;18.20;10.03;;;1.30;66.40;;;;;;5031802;28;20021;-82
2022/01/27 08:17:58;;;;;;;19.47;10.57;;;1.30;66.30;;;;;;5031363;28;20033;-82
2022/01/27 08:20:24;;;;;;;19.00;10.03;;;1.30;66.50;;;;;;5031214;28;20033;-82
2022/01/27 08:22:52;;;;;;;18.20;10.63;;;1.30;66.40;;;;;;5032527;28;20385;-82
2022/01/27 08:25:20;;;;;;;20.87;10.67;;;1.30;66.40;;;;;;5027327;28;20056;-82
2022/01/27 08:27:48;;;;;;;24.70;10.43;;;1.40;66.40;;;;;;5031698;28;20022;-82
2022/01/27 08:30:17;;;;;;;16.47;9.80;;;1.40;66.50;;;;;;5032420;28;20167;-82
2022/01/27 08:33:18;;;;;;;22.90;10.77;;;1.40;66.50;;;;;;5031644;28;20071;-82
2022/01/27 08:35:35;;;;;;;18.27;10.35;;;1.40;66.60;;;;;;5019171;28;20036;-82
2022/01/27 08:38:01;;;;;;;17.30;10.63;;;1.50;66.50;;;;;;5015820;28;20030;-82
2022/01/27 08:40:27;;;;;;;19.73;12.77;;;1.50;66.70;;;;;;5012892;28;20517;-82
2022/01/27 08:42:53;;;;;;;20.80;9.87;;;1.60;66.60;;;;;;5011420;28;20060;-82
2022/01/27 08:45:24;;;;;;;16.93;10.53;;;1.60;66.60;;;;;;5030148;28;20018;-82
2022/01/27 08:47:51;;;;;;;23.33;10.30;;;1.70;66.60;;;;;;5027354;28;20041;-82
2022/01/27 08:50:20;;;;;;;20.53;9.93;;;1.80;66.50;;;;;;5014601;28;20034;-82
2022/01/27 08:52:46;;;;;;;20.53;12.90;;;1.80;66.50;;;;;;5029388;28;20029;-82
2022/01/27 08:55:13;;;;;;;21.47;13.17;;;1.90;66.40;;;;;;5031004;28;20388;-82
2022/01/27 08:57:39;;;;;;;17.37;11.47;;;1.90;66.30;;;;;;5031064;28;20040;-82
2022/01/27 09:00:11;;;;;;;15.67;10.13;;;2.10;66.40;;;;;;5030693;28;20453;-83
2022/01/27 09:02:37;;;;;;;18.73;11.40;;;2.10;66.30;;;;;;5025115;28;20022;-82
2022/01/27 09:05:04;;;;;;;19.30;11.53;;;2.10;66.10;;;;;;5031735;28;20029;-82
2022/01/27 09:07:30;;;;;;;17.57;11.77;;;2.20;66.20;;;;;;5027279;28;20037;-82
2022/01/27 09:09:56;;;;;;;21.77;12.13;;;2.30;66.20;;;;;;5026705;28;20052;-82
2022/01/27 09:12:22;;;;;;;19.03;11.97;;;2.40;66.10;;;;;;5026643;28;20053;-82
2022/01/27 09:14:48;;;;;;;21.37;13.77;;;2.40;66.00;;;;;;5030564;28;20187;-82
2022/01/27 09:17:15;;;;;;;23.67;14.63;;;2.50;66.00;;;;;;5024576;28;20462;-82
2022/01/27 09:19:42;;;;;;;23.83;14.50;;;2.60;65.80;;;;;;5030373;28;20485;-83
2022/01/27 09:22:14;;;;;;;19.57;12.23;;;2.70;65.70;;;;;;5030497;28;20049;-83
2022/01/27 09:24:53;;;;;;;23.60;13.70;;;2.80;65.70;;;;;;5030287;28;20026;-83
2022/01/27 09:27:19;;;;;;;22.53;13.17;;;2.90;65.30;;;;;;5031048;28;20060;-83
2022/01/27 09:29:47;;;;;;;26.77;13.77;;;3.00;65.20;;;;;;5031007;28;20476;-83
2022/01/27 09:32:15;;;;;;;23.30;14.67;;;3.00;65.40;;;;;;5032287;28;20021;-84
2022/01/27 09:34:41;;;;;;;30.87;14.20;;;3.20;65.30;;;;;;5034012;28;20032;-83
2022/01/27 09:37:07;;;;;;;20.40;13.67;;;3.40;65.40;;;;;;5034649;28;20030;-83
2022/01/27 09:39:34;;;;;;;22.60;14.20;;;3.70;65.00;;;;;;5034621;28;20017;-83
2022/01/27 09:42:02;;;;;;;22.80;13.63;;;3.80;64.70;;;;;;5032183;28;20022;-83
2022/01/27 09:44:32;;;;;;;20.43;13.67;;;4.00;64.50;;;;;;5026042;28;20026;-84
2022/01/27 09:47:04;;;;;;;30.03;16.00;;;4.00;64.10;;;;;;5034330;28;20124;-84
2022/01/27 09:49:35;;;;;;;29.67;18.55;;;4.10;64.00;;;;;;5033866;28;20116;-83
2022/01/27 09:52:02;;;;;;;24.37;14.80;;;4.20;64.20;;;;;;5034350;28;20148;-84
2022/01/27 09:54:28;;;;;;;23.30;15.03;;;4.30;63.90;;;;;;5033284;28;20120;-84
2022/01/27 09:56:54;;;;;;;22.20;14.90;;;4.30;63.60;;;;;;5035138;28;20068;-83
2022/01/27 09:59:21;;;;;;;21.37;15.33;;;4.40;63.50;;;;;;5033234;28;20484;-84
2022/01/27 10:02:00;;;;;;;19.60;12.10;;;4.50;63.50;;;;;;5033732;28;20191;-84
2022/01/27 10:04:50;;;;;;;16.40;9.37;;;4.70;63.00;;;;;;5033914;28;20032;-84
2022/01/27 10:07:29;;;;;;;12.73;8.73;;;4.90;62.70;;;;;;5032066;28;20052;-84
2022/01/27 10:09:59;;;;;;;13.20;8.57;;;5.10;62.40;;;;;;5035441;28;20112;-84
2022/01/27 10:12:43;;;;;;;12.67;7.83;;;5.30;62.00;;;;;;5034054;28;20022;-84
2022/01/27 10:15:12;;;;;;;21.70;8.33;;;5.40;60.90;;;;;;5035756;28;20399;-84
2022/01/27 10:17:57;;;;;;;14.47;8.57;;;5.50;61.10;;;;;;5043538;28;20063;-84
2022/01/27 10:20:23;;;;;;;13.47;8.20;;;5.80;60.80;;;;;;5034207;28;20054;-84
2022/01/27 10:23:07;;;;;;;16.23;8.77;;;6.00;60.50;;;;;;5035623;28;20057;-84
2022/01/27 10:25:34;;;;;;;14.80;8.33;;;6.30;59.90;;;;;;5034140;28;20033;-84
2022/01/27 10:28:11;;;;;;;12.43;7.93;;;6.50;59.20;;;;;;5033904;28;20055;-84
2022/01/27 10:30:38;;;;;;;14.33;7.60;;;6.40;58.90;;;;;;5034148;28;20083;-84
2022/01/27 10:33:05;;;;;;;12.30;7.80;;;6.40;58.80;;;;;;5034003;28;20489;-84
2022/01/27 10:35:32;;;;;;;15.00;7.90;;;6.50;58.90;;;;;;5034360;28;20045;-84
2022/01/27 10:38:08;;;;;;;18.13;10.97;;;6.80;58.90;;;;;;5035486;28;20032;-84
2022/01/27 10:40:41;;;;;;;17.00;10.20;;;7.10;57.90;;;;;;5030793;28;20102;-84
2022/01/27 10:43:13;;;;;;;22.73;11.65;;;7.40;58.10;;;;;;5024112;28;20026;-84
2022/01/27 10:46:13;;;;;;;16.77;9.73;;;7.60;57.00;;;;;;5034317;28;20074;-84
2022/01/27 10:48:41;;;;;;;18.90;10.10;;;7.50;56.20;;;;;;5032889;28;20025;-84
2022/01/27 10:51:17;;;;;;;12.73;8.70;;;7.20;56.60;;;;;;5033645;28;20048;-84
2022/01/27 10:53:46;;;;;;;12.10;7.20;;;7.20;56.90;;;;;;5033693;28;20033;-84
2022/01/27 10:56:22;;;;;;;13.97;8.13;;;7.60;57.00;;;;;;5032847;28;20029;-84
2022/01/27 10:58:48;;;;;;;12.97;7.97;;;7.90;55.90;;;;;;5033236;28;20025;-85
2022/01/27 11:01:38;;;;;;;13.07;7.70;;;7.80;55.20;;;;;;5033042;28;20026;-85
2022/01/27 11:04:06;;;;;;;17.20;9.10;;;7.80;55.00;;;;;;5028212;28;20026;-84
2022/01/27 11:06:33;;;;;;;18.23;8.73;;;7.80;55.00;;;;;;5034395;28;20048;-85
2022/01/27 11:09:07;;;;;;;16.70;9.67;;;7.70;54.80;;;;;;5021014;28;20413;-85
2022/01/27 11:11:34;;;;;;;20.37;9.30;;;7.80;54.50;;;;;;5034319;28;20037;-85
2022/01/27 11:14:00;;;;;;;23.10;10.63;;;7.80;54.40;;;;;;5043823;28;20033;-85
2022/01/27 11:16:47;;;;;;;20.67;10.53;;;7.90;54.40;;;;;;5035509;28;20156;-84
2022/01/27 11:21:41;;;;;;;21.20;11.33;;;7.80;53.90;;;;;;5036555;28;20116;-84
2022/01/27 11:24:23;;;;;;;29.43;12.40;;;7.80;53.90;;;;;;5033682;28;20045;-85
2022/01/27 11:26:53;;;;;;;19.77;10.23;;;7.90;53.60;;;;;;5033465;28;20028;-85
2022/01/27 11:29:21;;;;;;;17.07;9.57;;;7.90;53.80;;;;;;5032228;28;20280;-85
2022/01/27 11:31:59;;;;;;;20.10;8.63;;;8.00;53.90;;;;;;5037176;28;20036;-85
2022/01/27 11:34:47;;;;;;;16.23;8.10;;;8.20;53.40;;;;;;5033767;28;20037;-84
2022/01/27 11:37:18;;;;;;;11.73;6.73;;;8.40;53.10;;;;;;5026488;28;20038;-85
2022/01/27 11:39:56;;;;;;;13.53;6.93;;;8.50;53.00;;;;;;5035582;28;20108;-85
2022/01/27 11:42:34;;;;;;;10.30;5.97;;;8.80;52.20;;;;;;5034882;28;20060;-85
2022/01/27 11:45:20;;;;;;;12.83;6.30;;;8.90;51.80;;;;;;5034933;28;20025;-85
2022/01/27 11:47:49;;;;;;;14.70;6.30;;;8.90;51.20;;;;;;5033731;28;20377;-85
2022/01/27 11:50:32;;;;;;;11.13;6.53;;;8.90;51.30;;;;;;5028695;28;20571;-85
2022/01/27 11:52:59;;;;;;;8.48;5.82;;;9.00;51.00;;;;;;5033849;28;20534;-85
2022/01/27 11:55:24;;;;;;;14.27;6.47;;;9.00;51.10;;;;;;5035206;28;20492;-85
2022/01/27 11:57:58;;;;;;;11.37;6.30;;;9.00;51.00;;;;;;5034051;28;20040;-85
2022/01/27 12:00:28;;;;;;;12.23;6.33;;;9.20;50.60;;;;;;5033251;28;20039;-83
2022/01/27 12:02:56;;;;;;;16.87;7.40;;;9.20;50.30;;;;;;5031789;28;20029;-83
2022/01/27 12:05:49;;;;;;;13.50;6.00;;;9.20;50.00;;;;;;5030877;28;20040;-85
2022/01/27 12:08:15;;;;;;;13.45;7.00;;;9.30;49.70;;;;;;5032576;28;20036;-85
2022/01/27 12:10:44;;;;;;;11.47;6.73;;;9.30;50.00;;;;;;5033889;28;20041;-85
2022/01/27 12:19:01;;;;;;;11.47;7.47;;;9.50;49.30;;;;;;5034051;28;20447;-85
2022/01/27 12:21:40;;;;;;;15.50;8.13;;;9.60;49.20;;;;;;5032069;28;20029;-85
2022/01/27 12:24:16;;;;;;;12.50;7.30;;;9.50;49.10;;;;;;5016419;28;20026;-86
2022/01/27 12:26:49;;;;;;;12.70;8.37;;;9.50;49.20;;;;;;5030718;28;20034;-85
2022/01/27 12:29:37;;;;;;;14.27;7.47;;;9.50;49.10;;;;;;5032498;28;20017;-85
2022/01/27 12:32:07;;;;;;;14.07;6.97;;;9.60;49.00;;;;;;5032308;28;20025;-85
2022/01/27 12:34:35;;;;;;;10.00;7.03;;;9.50;48.80;;;;;;5040860;28;20484;-85
2022/01/27 12:37:11;;;;;;;10.93;7.07;;;9.40;49.00;;;;;;5031523;28;20068;-85
2022/01/27 12:39:49;;;;;;;11.23;6.80;;;9.50;48.90;;;;;;5031983;28;20021;-83
2022/01/27 12:42:16;;;;;;;13.23;7.47;;;9.60;48.70;;;;;;5013558;28;20026;-83
2022/01/27 12:45:07;;;;;;;16.73;6.87;;;9.50;48.70;;;;;;5029725;28;20025;-85
2022/01/27 12:47:36;;;;;;;23.83;7.10;;;9.40;48.30;;;;;;5046687;28;20041;-85
2022/01/27 12:50:09;;;;;;;15.83;7.83;;;9.30;48.60;;;;;;5032103;28;20030;-82
2022/01/27 12:52:42;;;;;;;13.48;6.78;;;9.30;48.40;;;;;;5029908;28;20029;-82
2022/01/27 12:55:16;;;;;;;12.83;6.10;;;9.30;48.40;;;;;;5031055;28;20503;-82
2022/01/27 12:57:42;;;;;;;10.17;6.43;;;9.20;48.30;;;;;;5031003;28;20040;-84
2022/01/27 13:00:13;;;;;;;9.73;5.77;;;9.20;48.50;;;;;;5030287;28;20490;-85
2022/01/27 13:02:39;;;;;;;11.97;5.17;;;9.30;48.30;;;;;;5012082;28;20117;-85
2022/01/27 13:05:07;;;;;;;6.60;4.77;;;9.20;48.00;;;;;;5029944;28;20026;-84
2022/01/27 13:07:38;;;;;;;11.80;4.67;;;9.20;47.90;;;;;;5033329;28;20103;-84
2022/01/27 13:10:13;;;;;;;10.00;5.43;;;9.20;47.70;;;;;;5033048;28;20037;-84
2022/01/27 13:12:48;;;;;;;14.03;6.37;;;9.20;47.60;;;;;;5028489;28;20033;-84
2022/01/27 13:15:22;;;;;;;18.93;7.67;;;9.20;47.70;;;;;;5028124;28;20116;-83
2022/01/27 13:20:31;;;;;;;29.40;7.70;;;9.30;48.00;;;;;;5035143;28;20026;-84
2022/01/27 13:23:13;;;;;;;15.80;6.30;;;9.30;48.00;;;;;;5033038;28;20384;-84
2022/01/27 13:25:41;;;;;;;12.73;6.47;;;9.30;48.40;;;;;;5034096;28;20365;-84
2022/01/27 13:28:21;;;;;;;12.33;5.87;;;9.30;48.00;;;;;;5026367;28;20379;-84
2022/01/27 13:30:52;;;;;;;14.33;6.47;;;9.20;48.00;;;;;;5026752;28;20030;-84
2022/01/27 13:33:21;;;;;;;12.40;6.83;;;9.20;48.00;;;;;;5031646;28;20032;-84
2022/01/27 13:35:49;;;;;;;12.93;6.30;;;9.20;48.20;;;;;;5033750;28;20562;-84
2022/01/27 13:38:25;;;;;;;16.47;7.43;;;9.10;48.30;;;;;;5033729;28;20407;-84
2022/01/27 13:41:22;;;;;;;15.37;7.10;;;9.10;48.30;;;;;;5033998;28;20112;-84
2022/01/27 13:44:02;;;;;;;12.83;7.20;;;9.10;48.40;;;;;;5035537;28;20380;-84
2022/01/27 13:46:49;;;;;;;13.80;6.47;;;9.10;48.50;;;;;;5033605;28;20096;-84